createdAt,value
2019-03-27T19:47:59.156Z,55.20
2019-03-27T19:50:29.531Z,55.30
2019-03-27T19:52:59.739Z,55.80
2019-03-27T19:55:29.389Z,56.20
2019-03-27T19:57:59.609Z,56.20
2019-03-27T20:00:29.264Z,56.70
2019-03-27T20:02:59.477Z,56.80
2019-03-27T20:05:29.818Z,56.50
2019-03-27T20:08:00.032Z,57.20
2019-03-27T20:10:30.255Z,57.50
2019-03-27T20:13:00.472Z,57.10
2019-03-27T20:15:30.695Z,57.20
2019-03-27T20:25:34.128Z,56.20
2019-03-27T20:33:04.136Z,55.70
2019-03-27T20:35:34.354Z,55.60
2019-03-27T20:38:04.775Z,55.60
2019-03-27T20:40:34.986Z,55.50
2019-03-27T20:43:05.197Z,55.40
2019-03-27T20:45:35.495Z,55.40
2019-03-27T20:48:06.042Z,55.20
2019-03-27T20:50:36.389Z,55.30
2019-03-27T20:53:06.608Z,55.10
2019-03-27T20:55:36.884Z,54.90
2019-03-27T20:58:07.096Z,54.80
2019-03-27T21:00:37.391Z,54.80
2019-03-27T21:03:07.676Z,54.60
2019-03-27T21:05:37.892Z,54.50
2019-03-27T21:08:08.286Z,54.50
2019-03-27T21:10:38.506Z,54.50
2019-03-27T21:13:08.720Z,54.40
2019-03-27T21:15:39.216Z,54.40
2019-03-27T21:18:09.639Z,54.20
2019-03-27T21:20:39.863Z,54.10
2019-03-27T21:23:09.528Z,54.10
2019-03-27T21:25:39.748Z,54.00
2019-03-27T21:28:09.972Z,54.00
2019-03-27T21:33:09.408Z,54.00
2019-03-27T21:35:39.628Z,54.00
2019-03-27T21:38:09.284Z,53.90
2019-03-27T21:40:39.500Z,53.80
2019-03-27T21:43:09.715Z,53.80
2019-03-27T21:45:39.369Z,53.80
2019-03-27T21:48:09.651Z,53.80
2019-03-27T21:50:39.859Z,53.80
2019-03-27T21:53:10.089Z,53.70
2019-03-27T21:55:43.002Z,53.70
2019-03-27T22:00:42.368Z,53.60
2019-03-27T22:03:12.020Z,53.60
2019-03-27T22:05:42.232Z,53.50
2019-03-27T22:08:12.443Z,53.60
2019-03-27T22:10:42.666Z,53.50
